sensor_id;sensor_type;location;lat;lon;timestamp;pressure;altitude;pressure_sealevel;temperature;humidity
61682;BME280;47577;43.610;25.010;2023-03-22T00:01:51;100216.56;;;12.40;86.16
61682;BME280;47577;43.610;25.010;2023-03-22T00:04:18;100205.91;;;12.40;86.35
61682;BME280;47577;43.610;25.010;2023-03-22T00:06:43;100204.13;;;12.41;86.12
61682;BME280;47577;43.610;25.010;2023-03-22T00:09:09;100203.16;;;12.42;85.98
61682;BME280;47577;43.610;25.010;2023-03-22T00:11:35;100205.06;;;12.40;85.87
61682;BME280;47577;43.610;25.010;2023-03-22T00:14:00;100207.91;;;12.35;86.32
61682;BME280;47577;43.610;25.010;2023-03-22T00:16:25;100207.06;;;12.35;86.06
61682;BME280;47577;43.610;25.010;2023-03-22T00:18:51;100200.06;;;12.32;86.30
61682;BME280;47577;43.610;25.010;2023-03-22T00:21:16;100203.59;;;12.33;86.63
61682;BME280;47577;43.610;25.010;2023-03-22T00:23:42;100209.84;;;12.32;86.91
61682;BME280;47577;43.610;25.010;2023-03-22T00:26:08;100207.97;;;12.34;86.73
61682;BME280;47577;43.610;25.010;2023-03-22T00:28:34;100211.59;;;12.33;87.20
61682;BME280;47577;43.610;25.010;2023-03-22T00:31:00;100208.94;;;12.33;87.43
61682;BME280;47577;43.610;25.010;2023-03-22T00:33:30;100211.59;;;12.33;87.42
61682;BME280;47577;43.610;25.010;2023-03-22T00:36:03;100211.44;;;12.36;87.06
61682;BME280;47577;43.610;25.010;2023-03-22T00:38:28;100207.97;;;12.34;87.41
61682;BME280;47577;43.610;25.010;2023-03-22T00:43:35;100209.41;;;12.22;87.82
61682;BME280;47577;43.610;25.010;2023-03-22T00:46:01;100210.31;;;12.21;87.46
61682;BME280;47577;43.610;25.010;2023-03-22T00:48:27;100210.31;;;12.21;87.90
61682;BME280;47577;43.610;25.010;2023-03-22T00:50:52;100215.78;;;12.18;87.09
61682;BME280;47577;43.610;25.010;2023-03-22T00:53:17;100218.88;;;12.09;87.90
61682;BME280;47577;43.610;25.010;2023-03-22T00:55:43;100218.03;;;12.06;88.68
61682;BME280;47577;43.610;25.010;2023-03-22T00:58:08;100211.06;;;12.04;88.56
61682;BME280;47577;43.610;25.010;2023-03-22T01:00:34;100211.44;;;11.95;89.17
61682;BME280;47577;43.610;25.010;2023-03-22T01:02:59;100211.59;;;11.90;89.44
61682;BME280;47577;43.610;25.010;2023-03-22T01:05:32;100217.19;;;11.84;89.55
61682;BME280;47577;43.610;25.010;2023-03-22T01:08:00;100214.16;;;11.93;89.62
61682;BME280;47577;43.610;25.010;2023-03-22T01:10:26;100220.16;;;11.98;89.35
61682;BME280;47577;43.610;25.010;2023-03-22T01:12:52;100215.59;;;12.02;89.21
61682;BME280;47577;43.610;25.010;2023-03-22T01:15:18;100216.41;;;12.04;89.50
61682;BME280;47577;43.610;25.010;2023-03-22T01:17:43;100208.41;;;12.04;88.90
61682;BME280;47577;43.610;25.010;2023-03-22T01:20:09;100212.25;;;11.97;89.89
61682;BME280;47577;43.610;25.010;2023-03-22T01:22:35;100207.66;;;12.00;89.13
61682;BME280;47577;43.610;25.010;2023-03-22T01:25:00;100213.66;;;12.05;89.71
61682;BME280;47577;43.610;25.010;2023-03-22T01:27:26;100202.13;;;12.05;89.40
61682;BME280;47577;43.610;25.010;2023-03-22T01:29:51;100200.41;;;12.04;88.89
61682;BME280;47577;43.610;25.010;2023-03-22T01:32:17;100196.84;;;12.03;89.20
61682;BME280;47577;43.610;25.010;2023-03-22T01:34:42;100199.50;;;12.03;89.62
61682;BME280;47577;43.610;25.010;2023-03-22T01:37:07;100189.09;;;11.99;89.71
61682;BME280;47577;43.610;25.010;2023-03-22T01:39:33;100198.06;;;11.96;89.86
61682;BME280;47577;43.610;25.010;2023-03-22T01:41:58;100194.34;;;12.00;89.67
61682;BME280;47577;43.610;25.010;2023-03-22T01:44:28;100190.66;;;12.03;89.59
61682;BME280;47577;43.610;25.010;2023-03-22T01:46:54;100193.25;;;12.04;89.57
61682;BME280;47577;43.610;25.010;2023-03-22T01:49:21;100188.72;;;12.06;88.98
61682;BME280;47577;43.610;25.010;2023-03-22T01:51:48;100182.66;;;12.03;88.15
61682;BME280;47577;43.610;25.010;2023-03-22T01:54:20;100180.88;;;12.03;88.57
61682;BME280;47577;43.610;25.010;2023-03-22T01:56:48;100183.53;;;12.03;89.28
61682;BME280;47577;43.610;25.010;2023-03-22T01:59:14;100178.19;;;12.03;88.40
61682;BME280;47577;43.610;25.010;2023-03-22T02:01:40;100184.53;;;12.01;88.64
61682;BME280;47577;43.610;25.010;2023-03-22T02:04:10;100183.69;;;12.00;89.04
61682;BME280;47577;43.610;25.010;2023-03-22T02:06:39;100180.97;;;12.02;88.84
61682;BME280;47577;43.610;25.010;2023-03-22T02:09:05;100180.78;;;12.05;88.60
61682;BME280;47577;43.610;25.010;2023-03-22T02:11:36;100182.66;;;12.03;88.20
61682;BME280;47577;43.610;25.010;2023-03-22T02:16:37;100175.88;;;11.96;88.63
61682;BME280;47577;43.610;25.010;2023-03-22T02:50:02;100196.09;;;11.79;90.48
61682;BME280;47577;43.610;25.010;2023-03-22T02:52:31;100196.81;;;11.83;89.90
61682;BME280;47577;43.610;25.010;2023-03-22T02:57:49;100205.66;;;11.83;89.99
61682;BME280;47577;43.610;25.010;2023-03-22T03:00:16;100205.47;;;11.88;90.14
61682;BME280;47577;43.610;25.010;2023-03-22T03:02:45;100216.00;;;11.91;89.98
61682;BME280;47577;43.610;25.010;2023-03-22T03:05:12;100211.66;;;11.88;90.07
61682;BME280;47577;43.610;25.010;2023-03-22T03:07:40;100211.56;;;11.92;89.19
61682;BME280;47577;43.610;25.010;2023-03-22T03:10:07;100224.63;;;11.98;89.73
61682;BME280;47577;43.610;25.010;2023-03-22T03:12:33;100225.38;;;12.01;88.91
61682;BME280;47577;43.610;25.010;2023-03-22T03:14:59;100220.09;;;12.00;89.39
61682;BME280;47577;43.610;25.010;2023-03-22T03:20:05;100227.00;;;12.05;89.33
61682;BME280;47577;43.610;25.010;2023-03-22T03:22:54;100221.72;;;12.04;88.75
61682;BME280;47577;43.610;25.010;2023-03-22T03:25:46;100226.03;;;12.06;89.35
61682;BME280;47577;43.610;25.010;2023-03-22T03:28:37;100215.50;;;12.03;89.02
61682;BME280;47577;43.610;25.010;2023-03-22T03:31:07;100216.41;;;12.04;88.81
61682;BME280;47577;43.610;25.010;2023-03-22T03:33:35;100220.03;;;12.01;89.15
61682;BME280;47577;43.610;25.010;2023-03-22T03:36:05;100214.72;;;12.01;89.09
61682;BME280;47577;43.610;25.010;2023-03-22T03:38:33;100216.44;;;12.02;89.64
61682;BME280;47577;43.610;25.010;2023-03-22T03:41:01;100223.66;;;12.00;88.84
61682;BME280;47577;43.610;25.010;2023-03-22T03:43:27;100222.69;;;12.01;88.89
61682;BME280;47577;43.610;25.010;2023-03-22T03:45:53;100228.03;;;12.01;88.91
61682;BME280;47577;43.610;25.010;2023-03-22T03:48:23;100222.75;;;12.00;89.80
61682;BME280;47577;43.610;25.010;2023-03-22T03:50:51;100225.38;;;12.01;89.19
61682;BME280;47577;43.610;25.010;2023-03-22T03:53:17;100229.78;;;12.02;89.72
61682;BME280;47577;43.610;25.010;2023-03-22T03:55:43;100230.69;;;12.01;89.32
61682;BME280;47577;43.610;25.010;2023-03-22T03:58:08;100227.25;;;11.99;89.70
61682;BME280;47577;43.610;25.010;2023-03-22T04:00:34;100233.50;;;11.98;89.16
61682;BME280;47577;43.610;25.010;2023-03-22T04:03:00;100229.00;;;12.00;89.56
61682;BME280;47577;43.610;25.010;2023-03-22T04:05:25;100222.69;;;12.01;89.15
61682;BME280;47577;43.610;25.010;2023-03-22T04:07:51;100228.91;;;12.02;88.38
61682;BME280;47577;43.610;25.010;2023-03-22T04:10:16;100231.59;;;12.02;88.76
61682;BME280;47577;43.610;25.010;2023-03-22T04:12:42;100228.91;;;12.02;89.27
61682;BME280;47577;43.610;25.010;2023-03-22T04:15:07;100235.09;;;12.02;88.87
61682;BME280;47577;43.610;25.010;2023-03-22T04:17:33;100229.91;;;11.99;89.29
61682;BME280;47577;43.610;25.010;2023-03-22T04:19:58;100230.75;;;12.00;89.27
61682;BME280;47577;43.610;25.010;2023-03-22T04:22:24;100229.91;;;11.99;89.64
61682;BME280;47577;43.610;25.010;2023-03-22T04:24:49;100235.28;;;11.98;89.03
61682;BME280;47577;43.610;25.010;2023-03-22T04:27:18;100235.34;;;11.96;89.68
61682;BME280;47577;43.610;25.010;2023-03-22T04:29:45;100231.72;;;11.99;89.17
61682;BME280;47577;43.610;25.010;2023-03-22T04:32:15;100244.22;;;11.97;89.37
61682;BME280;47577;43.610;25.010;2023-03-22T04:34:43;100240.63;;;11.98;89.43
61682;BME280;47577;43.610;25.010;2023-03-22T04:37:08;100237.16;;;11.96;89.04
61682;BME280;47577;43.610;25.010;2023-03-22T04:39:34;100248.91;;;11.90;89.22
61682;BME280;47577;43.610;25.010;2023-03-22T04:42:00;100254.19;;;11.92;89.40
61682;BME280;47577;43.610;25.010;2023-03-22T04:44:26;100251.53;;;11.92;89.43
61682;BME280;47577;43.610;25.010;2023-03-22T04:46:51;100255.94;;;11.93;89.70
61682;BME280;47577;43.610;25.010;2023-03-22T04:49:17;100250.44;;;11.97;88.97
61682;BME280;47577;43.610;25.010;2023-03-22T04:51:42;100254.88;;;11.97;88.76
61682;BME280;47577;43.610;25.010;2023-03-22T04:54:07;100253.94;;;11.98;89.01
61682;BME280;47577;43.610;25.010;2023-03-22T04:56:33;100260.13;;;11.98;89.07
61682;BME280;47577;43.610;25.010;2023-03-22T04:58:58;100259.41;;;11.95;88.63
61682;BME280;47577;43.610;25.010;2023-03-22T05:01:24;100264.78;;;11.93;90.11
61682;BME280;47577;43.610;25.010;2023-03-22T05:03:49;100264.03;;;11.89;89.89
61682;BME280;47577;43.610;25.010;2023-03-22T05:06:15;100271.22;;;11.87;89.95
61682;BME280;47577;43.610;25.010;2023-03-22T05:08:40;100264.03;;;11.89;89.73
61682;BME280;47577;43.610;25.010;2023-03-22T05:11:07;100273.53;;;11.97;90.09
61682;BME280;47577;43.610;25.010;2023-03-22T05:13:32;100269.00;;;11.99;89.93
61682;BME280;47577;43.610;25.010;2023-03-22T05:15:59;100277.81;;;12.01;89.67
61682;BME280;47577;43.610;25.010;2023-03-22T05:18:24;100277.81;;;12.01;90.13
61682;BME280;47577;43.610;25.010;2023-03-22T05:20:51;100275.13;;;12.01;89.67
61682;BME280;47577;43.610;25.010;2023-03-22T05:23:18;100277.94;;;11.98;90.58
61682;BME280;47577;43.610;25.010;2023-03-22T05:25:48;100273.47;;;11.98;90.32
61682;BME280;47577;43.610;25.010;2023-03-22T05:28:14;100277.19;;;11.94;90.07
61682;BME280;47577;43.610;25.010;2023-03-22T05:30:40;100280.84;;;11.92;90.69
61682;BME280;47577;43.610;25.010;2023-03-22T05:33:06;100284.41;;;11.92;90.42
61682;BME280;47577;43.610;25.010;2023-03-22T05:35:32;100289.75;;;11.91;90.76
61682;BME280;47577;43.610;25.010;2023-03-22T05:37:58;100295.13;;;11.89;90.66
61682;BME280;47577;43.610;25.010;2023-03-22T05:40:24;100301.25;;;11.69;90.72
61682;BME280;47577;43.610;25.010;2023-03-22T05:42:49;100297.00;;;11.65;91.23
61682;BME280;47577;43.610;25.010;2023-03-22T05:45:15;100300.53;;;11.65;91.48
61682;BME280;47577;43.610;25.010;2023-03-22T05:47:41;100302.38;;;11.63;91.64
61682;BME280;47577;43.610;25.010;2023-03-22T05:50:11;100316.56;;;11.64;92.21
61682;BME280;47577;43.610;25.010;2023-03-22T05:52:37;100317.47;;;11.63;91.95
61682;BME280;47577;43.610;25.010;2023-03-22T05:55:03;100323.63;;;11.65;92.18
61682;BME280;47577;43.610;25.010;2023-03-22T05:57:28;100336.06;;;11.64;92.25
61682;BME280;47577;43.610;25.010;2023-03-22T05:59:54;100330.94;;;11.60;92.28
61682;BME280;47577;43.610;25.010;2023-03-22T06:02:20;100334.50;;;11.59;92.54
61682;BME280;47577;43.610;25.010;2023-03-22T06:04:45;100336.50;;;11.53;93.18
61682;BME280;47577;43.610;25.010;2023-03-22T06:07:11;100339.97;;;11.56;92.70
61682;BME280;47577;43.610;25.010;2023-03-22T06:09:36;100342.50;;;11.59;92.72
61682;BME280;47577;43.610;25.010;2023-03-22T06:12:02;100352.31;;;11.58;93.07
61682;BME280;47577;43.610;25.010;2023-03-22T06:14:27;100348.63;;;11.61;92.67
61682;BME280;47577;43.610;25.010;2023-03-22T06:16:53;100349.47;;;11.61;92.83
61682;BME280;47577;43.610;25.010;2023-03-22T06:19:18;100351.34;;;11.59;92.81
61682;BME280;47577;43.610;25.010;2023-03-22T06:21:44;100351.34;;;11.59;92.75
61682;BME280;47577;43.610;25.010;2023-03-22T06:24:10;100352.31;;;11.58;92.93
61682;BME280;47577;43.610;25.010;2023-03-22T06:26:35;100352.25;;;11.60;93.04
61682;BME280;47577;43.610;25.010;2023-03-22T06:29:01;100361.78;;;11.65;92.85
61682;BME280;47577;43.610;25.010;2023-03-22T06:31:28;100364.38;;;11.67;92.71
61682;BME280;47577;43.610;25.010;2023-03-22T06:33:53;100365.22;;;11.67;92.44
61682;BME280;47577;43.610;25.010;2023-03-22T06:36:19;100367.22;;;11.62;92.43
61682;BME280;47577;43.610;25.010;2023-03-22T06:38:45;100371.75;;;11.60;92.37
61682;BME280;47577;43.610;25.010;2023-03-22T06:41:10;100371.75;;;11.60;92.77
61682;BME280;47577;43.610;25.010;2023-03-22T06:43:36;100366.59;;;11.56;92.55
61682;BME280;47577;43.610;25.010;2023-03-22T06:46:01;100377.97;;;11.59;92.62
61682;BME280;47577;43.610;25.010;2023-03-22T06:48:26;100371.00;;;11.57;93.10
61682;BME280;47577;43.610;25.010;2023-03-22T06:50:52;100388.00;;;11.52;93.16
61682;BME280;47577;43.610;25.010;2023-03-22T06:53:17;100382.63;;;11.54;93.18
61682;BME280;47577;43.610;25.010;2023-03-22T06:55:43;100385.41;;;11.51;93.20
61682;BME280;47577;43.610;25.010;2023-03-22T06:58:08;100385.28;;;11.54;93.45
61682;BME280;47577;43.610;25.010;2023-03-22T07:00:34;100384.19;;;11.60;93.40
61682;BME280;47577;43.610;25.010;2023-03-22T07:02:59;100390.25;;;11.63;93.94
61682;BME280;47577;43.610;25.010;2023-03-22T07:05:25;100380.47;;;11.64;93.46
61682;BME280;47577;43.610;25.010;2023-03-22T07:07:51;100384.31;;;11.57;93.52
61682;BME280;47577;43.610;25.010;2023-03-22T07:10:17;100386.78;;;11.61;94.21
61682;BME280;47577;43.610;25.010;2023-03-22T07:12:42;100387.94;;;11.54;93.79
61682;BME280;47577;43.610;25.010;2023-03-22T07:15:08;100390.50;;;11.57;94.05
61682;BME280;47577;43.610;25.010;2023-03-22T07:17:33;100395.03;;;11.55;93.68
61682;BME280;47577;43.610;25.010;2023-03-22T07:19:59;100391.56;;;11.51;94.88
61682;BME280;47577;43.610;25.010;2023-03-22T07:22:25;100393.28;;;11.54;94.69
61682;BME280;47577;43.610;25.010;2023-03-22T07:24:51;100388.69;;;11.58;94.88
61682;BME280;47577;43.610;25.010;2023-03-22T07:27:17;100393.03;;;11.60;94.25
61682;BME280;47577;43.610;25.010;2023-03-22T07:29:42;100387.72;;;11.60;94.20
61682;BME280;47577;43.610;25.010;2023-03-22T07:32:08;100399.72;;;11.48;94.50
61682;BME280;47577;43.610;25.010;2023-03-22T07:34:33;100402.44;;;11.47;94.14
61682;BME280;47577;43.610;25.010;2023-03-22T07:36:59;100409.53;;;11.46;94.51
61682;BME280;47577;43.610;25.010;2023-03-22T07:39:26;100405.63;;;11.57;94.72
61682;BME280;47577;43.610;25.010;2023-03-22T07:41:53;100405.50;;;11.60;94.16
61682;BME280;47577;43.610;25.010;2023-03-22T07:44:18;100408.00;;;11.63;93.81
61682;BME280;47577;43.610;25.010;2023-03-22T07:46:44;100407.31;;;11.58;93.75
61682;BME280;47577;43.610;25.010;2023-03-22T07:49:09;100404.56;;;11.61;93.74
61682;BME280;47577;43.610;25.010;2023-03-22T07:51:35;100400.91;;;11.63;94.10
61682;BME280;47577;43.610;25.010;2023-03-22T07:54:00;100405.50;;;11.60;93.83
61682;BME280;47577;43.610;25.010;2023-03-22T07:56:26;100402.94;;;11.57;93.65
61682;BME280;47577;43.610;25.010;2023-03-22T07:58:51;100411.97;;;11.52;93.34
61682;BME280;47577;43.610;25.010;2023-03-22T08:01:17;100409.53;;;11.46;93.62
61682;BME280;47577;43.610;25.010;2023-03-22T08:03:42;100414.00;;;11.46;93.69
61682;BME280;47577;43.610;25.010;2023-03-22T08:06:08;100407.81;;;11.45;94.11
61682;BME280;47577;43.610;25.010;2023-03-22T08:08:34;100412.81;;;11.53;94.07
61682;BME280;47577;43.610;25.010;2023-03-22T08:11:01;100412.03;;;11.51;93.92
61682;BME280;47577;43.610;25.010;2023-03-22T08:13:27;100410.22;;;11.51;94.13
61682;BME280;47577;43.610;25.010;2023-03-22T08:15:53;100409.34;;;11.51;94.08
61682;BME280;47577;43.610;25.010;2023-03-22T08:18:18;100416.31;;;11.55;94.79
61682;BME280;47577;43.610;25.010;2023-03-22T08:20:43;100408.97;;;11.62;94.60
61682;BME280;47577;43.610;25.010;2023-03-22T08:23:12;100411.63;;;11.62;94.49
61682;BME280;47577;43.610;25.010;2023-03-22T08:25:41;100414.41;;;11.59;94.88
61682;BME280;47577;43.610;25.010;2023-03-22T08:28:07;100406.34;;;11.60;94.91
61682;BME280;47577;43.610;25.010;2023-03-22T08:30:32;100411.47;;;11.66;94.78
61682;BME280;47577;43.610;25.010;2023-03-22T08:32:58;100411.97;;;11.76;94.60
61682;BME280;47577;43.610;25.010;2023-03-22T08:35:23;100412.25;;;11.68;94.13
61682;BME280;47577;43.610;25.010;2023-03-22T08:37:52;100417.47;;;11.71;93.89
61682;BME280;47577;43.610;25.010;2023-03-22T08:40:17;100418.50;;;11.67;93.41
61682;BME280;47577;43.610;25.010;2023-03-22T08:42:42;100422.97;;;11.67;94.08
61682;BME280;47577;43.610;25.010;2023-03-22T08:45:08;100424.78;;;11.66;93.56
61682;BME280;47577;43.610;25.010;2023-03-22T08:47:34;100422.06;;;11.68;93.59
61682;BME280;47577;43.610;25.010;2023-03-22T08:50:00;100423.72;;;11.70;93.53
61682;BME280;47577;43.610;25.010;2023-03-22T08:52:25;100427.31;;;11.69;93.54
61682;BME280;47577;43.610;25.010;2023-03-22T08:54:50;100429.91;;;11.71;94.13
61682;BME280;47577;43.610;25.010;2023-03-22T08:57:18;100436.28;;;11.67;93.62
61682;BME280;47577;43.610;25.010;2023-03-22T08:59:45;100433.56;;;11.68;93.41
61682;BME280;47577;43.610;25.010;2023-03-22T09:02:11;100430.09;;;11.66;93.71
61682;BME280;47577;43.610;25.010;2023-03-22T09:04:36;100440.97;;;11.60;94.40
61682;BME280;47577;43.610;25.010;2023-03-22T09:07:02;100437.50;;;11.58;95.22
61682;BME280;47577;43.610;25.010;2023-03-22T09:09:27;100437.25;;;11.64;94.23
61682;BME280;47577;43.610;25.010;2023-03-22T09:11:53;100441.84;;;11.61;94.38
61682;BME280;47577;43.610;25.010;2023-03-22T09:14:18;100446.09;;;11.66;93.71
61682;BME280;47577;43.610;25.010;2023-03-22T09:16:43;100452.38;;;11.64;94.44
61682;BME280;47577;43.610;25.010;2023-03-22T09:19:09;100446.88;;;11.68;93.61
61682;BME280;47577;43.610;25.010;2023-03-22T09:21:35;100447.31;;;11.56;94.05
61682;BME280;47577;43.610;25.010;2023-03-22T09:24:01;100445.78;;;11.50;94.76
61682;BME280;47577;43.610;25.010;2023-03-22T09:26:26;100447.75;;;11.45;95.00
61682;BME280;47577;43.610;25.010;2023-03-22T09:28:52;100439.66;;;11.48;95.11
61682;BME280;47577;43.610;25.010;2023-03-22T09:31:17;100445.59;;;11.55;94.67
61682;BME280;47577;43.610;25.010;2023-03-22T09:33:43;100446.69;;;11.49;95.36
61682;BME280;47577;43.610;25.010;2023-03-22T09:36:09;100443.00;;;11.53;96.59
61682;BME280;47577;43.610;25.010;2023-03-22T09:38:36;100442.78;;;11.60;95.78
61682;BME280;47577;43.610;25.010;2023-03-22T09:41:05;100437.69;;;11.53;95.81
61682;BME280;47577;43.610;25.010;2023-03-22T09:43:36;100438.31;;;11.60;95.20
61682;BME280;47577;43.610;25.010;2023-03-22T09:46:03;100436.63;;;11.58;95.03
61682;BME280;47577;43.610;25.010;2023-03-22T09:48:30;100434.53;;;11.66;96.01
61682;BME280;47577;43.610;25.010;2023-03-22T09:50:56;100436.13;;;11.71;95.38
61682;BME280;47577;43.610;25.010;2023-03-22T09:53:25;100436.00;;;11.75;95.27
61682;BME280;47577;43.610;25.010;2023-03-22T09:58:24;100439.25;;;11.83;95.08
61682;BME280;47577;43.610;25.010;2023-03-22T10:01:03;100437.16;;;11.91;94.96
61682;BME280;47577;43.610;25.010;2023-03-22T10:06:18;100440.66;;;11.93;94.12
61682;BME280;47577;43.610;25.010;2023-03-22T10:12:08;100443.25;;;11.95;93.82
61682;BME280;47577;43.610;25.010;2023-03-22T10:16:47;100447.81;;;11.91;93.00
61682;BME280;47577;43.610;25.010;2023-03-22T10:19:29;100439.78;;;11.93;93.78
61682;BME280;47577;43.610;25.010;2023-03-22T10:21:57;100446.91;;;11.92;94.32
61682;BME280;47577;43.610;25.010;2023-03-22T10:24:27;100445.19;;;11.89;93.25
61682;BME280;47577;43.610;25.010;2023-03-22T10:26:54;100440.72;;;11.90;94.60
61682;BME280;47577;43.610;25.010;2023-03-22T10:31:45;100440.94;;;11.84;93.99
61682;BME280;47577;43.610;25.010;2023-03-22T10:36:40;100436.13;;;11.71;93.83
61682;BME280;47577;43.610;25.010;2023-03-22T10:42:10;100444.00;;;11.75;94.26
61682;BME280;47577;43.610;25.010;2023-03-22T10:44:46;100435.16;;;11.73;94.04
61682;BME280;47577;43.610;25.010;2023-03-22T10:47:14;100435.94;;;11.76;94.31
61682;BME280;47577;43.610;25.010;2023-03-22T10:49:46;100439.41;;;11.78;94.14
61682;BME280;47577;43.610;25.010;2023-03-22T10:52:19;100434.03;;;11.80;94.76
61682;BME280;47577;43.610;25.010;2023-03-22T10:54:50;100434.78;;;11.83;93.75
61682;BME280;47577;43.610;25.010;2023-03-22T10:57:16;100433.03;;;11.82;93.59
61682;BME280;47577;43.610;25.010;2023-03-22T10:59:43;100432.50;;;11.73;94.05
61682;BME280;47577;43.610;25.010;2023-03-22T11:04:50;100430.63;;;11.76;95.07
61682;BME280;47577;43.610;25.010;2023-03-22T11:07:25;100434.03;;;11.80;94.35
61682;BME280;47577;43.610;25.010;2023-03-22T11:09:56;100428.47;;;11.86;94.39
61682;BME280;47577;43.610;25.010;2023-03-22T11:12:21;100422.00;;;11.93;94.50
61682;BME280;47577;43.610;25.010;2023-03-22T11:14:47;100422.78;;;11.95;94.33
61682;BME280;47577;43.610;25.010;2023-03-22T11:17:15;100420.06;;;11.97;94.22
61682;BME280;47577;43.610;25.010;2023-03-22T11:24:45;100416.59;;;11.95;92.68
61682;BME280;47577;43.610;25.010;2023-03-22T11:27:22;100417.59;;;11.92;92.54
61682;BME280;47577;43.610;25.010;2023-03-22T11:29:52;100414.75;;;11.97;92.71
61682;BME280;47577;43.610;25.010;2023-03-22T11:34:44;100410.97;;;12.02;93.65
61682;BME280;47577;43.610;25.010;2023-03-22T11:37:14;100417.34;;;11.98;93.43
61682;BME280;47577;43.610;25.010;2023-03-22T11:39:44;100411.94;;;12.00;93.53
61682;BME280;47577;43.610;25.010;2023-03-22T11:42:13;100411.22;;;11.96;93.38
61682;BME280;47577;43.610;25.010;2023-03-22T11:44:42;100407.81;;;11.93;93.02
61682;BME280;47577;43.610;25.010;2023-03-22T11:47:09;100406.06;;;11.92;92.70
61682;BME280;47577;43.610;25.010;2023-03-22T11:52:09;100401.66;;;11.67;94.14
61682;BME280;47577;43.610;25.010;2023-03-22T11:54:35;100400.75;;;11.68;93.14
61682;BME280;47577;43.610;25.010;2023-03-22T11:57:03;100407.78;;;11.69;94.39
61682;BME280;47577;43.610;25.010;2023-03-22T11:59:36;100401.50;;;11.71;94.63
61682;BME280;47577;43.610;25.010;2023-03-22T12:02:11;100410.00;;;11.58;93.47
61682;BME280;47577;43.610;25.010;2023-03-22T12:04:40;100400.84;;;11.41;95.53
61682;BME280;47577;43.610;25.010;2023-03-22T12:07:14;100410.75;;;11.61;95.15
61682;BME280;47577;43.610;25.010;2023-03-22T12:12:09;100405.72;;;11.53;94.91
61682;BME280;47577;43.610;25.010;2023-03-22T12:14:45;100405.75;;;11.28;96.49
61682;BME280;47577;43.610;25.010;2023-03-22T12:22:12;100408.44;;;11.52;95.61
61682;BME280;47577;43.610;25.010;2023-03-22T12:24:38;100403.28;;;11.47;95.92
61682;BME280;47577;43.610;25.010;2023-03-22T12:27:08;100406.59;;;11.54;96.50
61682;BME280;47577;43.610;25.010;2023-03-22T12:29:38;100408.50;;;11.50;96.44
61682;BME280;47577;43.610;25.010;2023-03-22T12:32:11;100412.59;;;11.59;96.58
61682;BME280;47577;43.610;25.010;2023-03-22T12:34:41;100403.75;;;11.59;96.54
61682;BME280;47577;43.610;25.010;2023-03-22T12:37:09;100399.50;;;11.53;95.02
61682;BME280;47577;43.610;25.010;2023-03-22T12:39:39;100400.41;;;11.53;96.09
61682;BME280;47577;43.610;25.010;2023-03-22T12:42:20;100407.16;;;11.62;95.89
61682;BME280;47577;43.610;25.010;2023-03-22T12:44:48;100400.09;;;11.61;96.23
61682;BME280;47577;43.610;25.010;2023-03-22T12:52:32;100408.34;;;11.77;95.42
61682;BME280;47577;43.610;25.010;2023-03-22T12:55:00;100410.44;;;11.69;96.27
61682;BME280;47577;43.610;25.010;2023-03-22T12:57:27;100406.66;;;11.76;96.17
61682;BME280;47577;43.610;25.010;2023-03-22T12:59:54;100399.41;;;11.80;95.73
61682;BME280;47577;43.610;25.010;2023-03-22T13:02:30;100407.84;;;11.91;95.06
61682;BME280;47577;43.610;25.010;2023-03-22T13:04:58;100408.50;;;11.98;94.48
61682;BME280;47577;43.610;25.010;2023-03-22T13:09:59;100403.97;;;12.00;94.91
61682;BME280;47577;43.610;25.010;2023-03-22T13:12:26;100405.09;;;11.94;95.96
61682;BME280;47577;43.610;25.010;2023-03-22T13:14:53;100401.34;;;11.98;96.27
61682;BME280;47577;43.610;25.010;2023-03-22T13:19:54;100404.03;;;11.98;96.14
61682;BME280;47577;43.610;25.010;2023-03-22T13:22:57;100402.88;;;12.05;95.83
61682;BME280;47577;43.610;25.010;2023-03-22T13:27:53;100394.41;;;12.16;94.36
61682;BME280;47577;43.610;25.010;2023-03-22T13:30:22;100396.47;;;12.10;95.49
61682;BME280;47577;43.610;25.010;2023-03-22T13:35:42;100395.84;;;12.25;95.36
61682;BME280;47577;43.610;25.010;2023-03-22T13:38:09;100395.84;;;12.25;94.90
61682;BME280;47577;43.610;25.010;2023-03-22T13:40:59;100394.00;;;12.27;95.06
61682;BME280;47577;43.610;25.010;2023-03-22T13:43:33;100392.88;;;12.33;94.87
61682;BME280;47577;43.610;25.010;2023-03-22T13:46:01;100387.50;;;12.34;94.27
61682;BME280;47577;43.610;25.010;2023-03-22T13:48:28;100379.34;;;12.37;93.89
61682;BME280;47577;43.610;25.010;2023-03-22T13:50:57;100377.31;;;12.44;94.20
61682;BME280;47577;43.610;25.010;2023-03-22T13:53:32;100379.91;;;12.46;96.29
61682;BME280;47577;43.610;25.010;2023-03-22T13:56:02;100381.31;;;12.54;95.28
61682;BME280;47577;43.610;25.010;2023-03-22T14:00:54;100379.63;;;12.52;94.85
61682;BME280;47577;43.610;25.010;2023-03-22T14:03:30;100371.50;;;12.55;95.31
61682;BME280;47577;43.610;25.010;2023-03-22T14:08:34;100373.31;;;12.54;94.36
61682;BME280;47577;43.610;25.010;2023-03-22T14:11:09;100373.19;;;12.57;93.28
61682;BME280;47577;43.610;25.010;2023-03-22T14:13:45;100373.97;;;12.59;93.26
61682;BME280;47577;43.610;25.010;2023-03-22T14:16:17;100381.00;;;12.62;93.75
61682;BME280;47577;43.610;25.010;2023-03-22T14:18:45;100373.78;;;12.64;92.26
61682;BME280;47577;43.610;25.010;2023-03-22T14:21:18;100372.81;;;12.67;92.89
61682;BME280;47577;43.610;25.010;2023-03-22T14:23:55;100374.72;;;12.63;92.17